Terminal Aerodrome Forecast
Issued by NWS Glasgow, MT

Home | Current Version | Previous Version | Text Only | Print | Product List | Glossary On
Versions: 1 2 3 4 5 6 7 8 9 10 11 12 13
960
FTUS45 KGGW 250526
TAFGGW
TAF
KGGW 250526Z 2506/2606 30004KT P6SM BKN100
     FM251200 28005KT P6SM BKN050
     FM260100 29006KT P6SM SCT200=

USA.gov is the U.S. government's official web portal to all federal, state and local government web resources and services.